sensor_id;sensor_type;location;lat;lon;timestamp;pressure;altitude;pressure_sealevel;temperature;humidity
55916;BME280;41826;53.246;-6.670;2023-11-21T00:02:18;102497.66;;;7.38;100.00
55916;BME280;41826;53.246;-6.670;2023-11-21T00:04:44;102493.34;;;7.37;100.00
55916;BME280;41826;53.246;-6.670;2023-11-21T00:07:11;102500.25;;;7.38;100.00
55916;BME280;41826;53.246;-6.670;2023-11-21T00:09:36;102520.47;;;7.00;100.00
55916;BME280;41826;53.246;-6.670;2023-11-21T00:12:01;102531.25;;;6.75;100.00
55916;BME280;41826;53.246;-6.670;2023-11-21T00:14:27;102528.28;;;6.83;100.00
55916;BME280;41826;53.246;-6.670;2023-11-21T00:16:54;102521.00;;;6.89;100.00
55916;BME280;41826;53.246;-6.670;2023-11-21T00:19:19;102516.63;;;7.07;100.00
55916;BME280;41826;53.246;-6.670;2023-11-21T00:21:45;102510.25;;;7.13;100.00
55916;BME280;41826;53.246;-6.670;2023-11-21T00:24:11;102499.53;;;7.19;100.00
55916;BME280;41826;53.246;-6.670;2023-11-21T00:26:38;102505.03;;;7.13;100.00
55916;BME280;41826;53.246;-6.670;2023-11-21T00:29:04;102502.13;;;7.19;100.00
55916;BME280;41826;53.246;-6.670;2023-11-21T00:31:34;102508.72;;;7.09;100.00
55916;BME280;41826;53.246;-6.670;2023-11-21T00:33:59;102526.00;;;7.11;100.00
55916;BME280;41826;53.246;-6.670;2023-11-21T00:36:25;102539.28;;;6.89;100.00
55916;BME280;41826;53.246;-6.670;2023-11-21T00:38:51;102554.94;;;6.70;100.00
55916;BME280;41826;53.246;-6.670;2023-11-21T00:41:19;102549.94;;;6.85;100.00
55916;BME280;41826;53.246;-6.670;2023-11-21T00:43:44;102555.34;;;6.99;100.00
55916;BME280;41826;53.246;-6.670;2023-11-21T00:46:10;102563.25;;;6.98;100.00
55916;BME280;41826;53.246;-6.670;2023-11-21T00:48:36;102568.94;;;7.06;100.00
55916;BME280;41826;53.246;-6.670;2023-11-21T00:51:01;102572.56;;;7.21;100.00
55916;BME280;41826;53.246;-6.670;2023-11-21T00:53:27;102573.78;;;7.13;100.00
55916;BME280;41826;53.246;-6.670;2023-11-21T00:55:52;102576.00;;;7.21;100.00
55916;BME280;41826;53.246;-6.670;2023-11-21T00:58:24;102578.56;;;7.23;100.00
55916;BME280;41826;53.246;-6.670;2023-11-21T01:00:49;102579.50;;;7.22;100.00
55916;BME280;41826;53.246;-6.670;2023-11-21T01:03:16;102577.88;;;7.19;100.00
55916;BME280;41826;53.246;-6.670;2023-11-21T01:05:41;102590.53;;;7.09;100.00
55916;BME280;41826;53.246;-6.670;2023-11-21T01:08:06;102602.41;;;6.98;100.00
55916;BME280;41826;53.246;-6.670;2023-11-21T01:10:31;102614.34;;;6.84;100.00
55916;BME280;41826;53.246;-6.670;2023-11-21T01:12:57;102609.94;;;7.04;100.00
55916;BME280;41826;53.246;-6.670;2023-11-21T01:15:23;102606.00;;;6.95;100.00
55916;BME280;41826;53.246;-6.670;2023-11-21T01:17:51;102612.63;;;7.02;100.00
55916;BME280;41826;53.246;-6.670;2023-11-21T01:20:16;102600.56;;;7.00;100.00
55916;BME280;41826;53.246;-6.670;2023-11-21T01:22:42;102607.63;;;6.98;100.00
55916;BME280;41826;53.246;-6.670;2023-11-21T01:25:08;102606.59;;;6.83;100.00
55916;BME280;41826;53.246;-6.670;2023-11-21T01:27:33;102631.44;;;6.54;100.00
55916;BME280;41826;53.246;-6.670;2023-11-21T01:29:59;102631.00;;;6.82;100.00
55916;BME280;41826;53.246;-6.670;2023-11-21T01:32:24;102633.53;;;6.83;100.00
55916;BME280;41826;53.246;-6.670;2023-11-21T01:34:50;102637.75;;;6.86;100.00
55916;BME280;41826;53.246;-6.670;2023-11-21T01:37:16;102640.59;;;6.62;100.00
55916;BME280;41826;53.246;-6.670;2023-11-21T01:39:42;102653.25;;;6.32;100.00
55916;BME280;41826;53.246;-6.670;2023-11-21T01:42:09;102645.22;;;6.56;100.00
55916;BME280;41826;53.246;-6.670;2023-11-21T01:44:34;102641.03;;;6.72;100.00
55916;BME280;41826;53.246;-6.670;2023-11-21T01:47:00;102641.66;;;6.77;100.00
55916;BME280;41826;53.246;-6.670;2023-11-21T01:49:30;102643.78;;;6.69;100.00
55916;BME280;41826;53.246;-6.670;2023-11-21T01:51:57;102649.59;;;6.36;100.00
55916;BME280;41826;53.246;-6.670;2023-11-21T01:54:23;102648.91;;;6.51;100.00
55916;BME280;41826;53.246;-6.670;2023-11-21T01:56:49;102635.22;;;6.65;100.00
55916;BME280;41826;53.246;-6.670;2023-11-21T01:59:21;102630.63;;;6.70;100.00
55916;BME280;41826;53.246;-6.670;2023-11-21T02:01:46;102629.88;;;6.68;100.00
55916;BME280;41826;53.246;-6.670;2023-11-21T02:04:12;102634.59;;;6.60;100.00
55916;BME280;41826;53.246;-6.670;2023-11-21T02:06:37;102634.38;;;6.65;100.00
55916;BME280;41826;53.246;-6.670;2023-11-21T02:09:04;102635.22;;;6.46;100.00
55916;BME280;41826;53.246;-6.670;2023-11-21T02:11:30;102628.19;;;6.48;100.00
55916;BME280;41826;53.246;-6.670;2023-11-21T02:13:55;102626.97;;;6.37;100.00
55916;BME280;41826;53.246;-6.670;2023-11-21T02:16:20;102631.03;;;6.23;100.00
55916;BME280;41826;53.246;-6.670;2023-11-21T02:18:49;102628.00;;;6.33;100.00
55916;BME280;41826;53.246;-6.670;2023-11-21T02:21:14;102630.94;;;6.25;100.00
55916;BME280;41826;53.246;-6.670;2023-11-21T02:23:41;102647.31;;;6.28;100.00
55916;BME280;41826;53.246;-6.670;2023-11-21T02:26:09;102650.34;;;5.99;100.00
55916;BME280;41826;53.246;-6.670;2023-11-21T02:28:35;102642.19;;;6.06;100.00
55916;BME280;41826;53.246;-6.670;2023-11-21T02:31:00;102650.41;;;5.97;100.00
55916;BME280;41826;53.246;-6.670;2023-11-21T02:33:28;102653.91;;;6.17;100.00
55916;BME280;41826;53.246;-6.670;2023-11-21T02:35:54;102658.16;;;6.19;100.00
55916;BME280;41826;53.246;-6.670;2023-11-21T02:38:21;102672.38;;;6.12;100.00
55916;BME280;41826;53.246;-6.670;2023-11-21T02:40:46;102661.94;;;6.12;100.00
55916;BME280;41826;53.246;-6.670;2023-11-21T02:43:13;102666.31;;;6.12;100.00
55916;BME280;41826;53.246;-6.670;2023-11-21T02:45:39;102665.63;;;6.27;100.00
55916;BME280;41826;53.246;-6.670;2023-11-21T02:48:06;102685.16;;;6.18;100.00
55916;BME280;41826;53.246;-6.670;2023-11-21T02:50:34;102695.75;;;5.93;100.00
55916;BME280;41826;53.246;-6.670;2023-11-21T02:53:00;102694.09;;;5.91;100.00
55916;BME280;41826;53.246;-6.670;2023-11-21T02:55:26;102692.53;;;5.86;100.00
55916;BME280;41826;53.246;-6.670;2023-11-21T02:57:53;102702.88;;;5.68;100.00
55916;BME280;41826;53.246;-6.670;2023-11-21T03:00:18;102694.78;;;5.74;100.00
55916;BME280;41826;53.246;-6.670;2023-11-21T03:02:44;102692.06;;;5.77;100.00
55916;BME280;41826;53.246;-6.670;2023-11-21T03:05:09;102701.09;;;5.90;100.00
55916;BME280;41826;53.246;-6.670;2023-11-21T03:07:38;102703.78;;;5.87;100.00
55916;BME280;41826;53.246;-6.670;2023-11-21T03:10:06;102710.72;;;5.88;100.00
55916;BME280;41826;53.246;-6.670;2023-11-21T03:12:31;102715.00;;;5.89;100.00
55916;BME280;41826;53.246;-6.670;2023-11-21T03:14:59;102718.88;;;5.58;100.00
55916;BME280;41826;53.246;-6.670;2023-11-21T03:17:26;102706.56;;;5.62;100.00
55916;BME280;41826;53.246;-6.670;2023-11-21T03:19:53;102715.03;;;5.67;100.00
55916;BME280;41826;53.246;-6.670;2023-11-21T03:22:19;102711.22;;;5.76;100.00
55916;BME280;41826;53.246;-6.670;2023-11-21T03:24:45;102718.38;;;5.71;100.00
55916;BME280;41826;53.246;-6.670;2023-11-21T03:27:11;102729.28;;;5.80;100.00
55916;BME280;41826;53.246;-6.670;2023-11-21T03:29:37;102731.75;;;5.83;100.00
55916;BME280;41826;53.246;-6.670;2023-11-21T03:32:04;102739.31;;;5.90;100.00
55916;BME280;41826;53.246;-6.670;2023-11-21T03:34:29;102745.50;;;5.87;100.00
55916;BME280;41826;53.246;-6.670;2023-11-21T03:36:56;102750.84;;;5.84;100.00
55916;BME280;41826;53.246;-6.670;2023-11-21T03:39:22;102747.72;;;5.76;100.00
55916;BME280;41826;53.246;-6.670;2023-11-21T03:41:48;102766.00;;;5.52;100.00
55916;BME280;41826;53.246;-6.670;2023-11-21T03:44:14;102773.31;;;5.19;100.00
55916;BME280;41826;53.246;-6.670;2023-11-21T03:46:40;102779.97;;;5.04;100.00
55916;BME280;41826;53.246;-6.670;2023-11-21T03:49:05;102758.00;;;4.88;100.00
55916;BME280;41826;53.246;-6.670;2023-11-21T03:51:31;102752.69;;;4.91;100.00
55916;BME280;41826;53.246;-6.670;2023-11-21T03:53:56;102738.03;;;5.12;100.00
55916;BME280;41826;53.246;-6.670;2023-11-21T03:56:21;102745.59;;;5.18;100.00
55916;BME280;41826;53.246;-6.670;2023-11-21T03:58:48;102735.66;;;5.29;100.00
55916;BME280;41826;53.246;-6.670;2023-11-21T04:01:23;102725.91;;;5.34;100.00
55916;BME280;41826;53.246;-6.670;2023-11-21T04:03:51;102726.50;;;5.41;100.00
55916;BME280;41826;53.246;-6.670;2023-11-21T04:06:17;102735.34;;;5.59;100.00
55916;BME280;41826;53.246;-6.670;2023-11-21T04:08:43;102754.59;;;5.33;100.00
55916;BME280;41826;53.246;-6.670;2023-11-21T04:11:09;102756.91;;;5.40;100.00
55916;BME280;41826;53.246;-6.670;2023-11-21T04:13:36;102771.50;;;4.99;100.00
55916;BME280;41826;53.246;-6.670;2023-11-21T04:16:04;102753.47;;;5.16;100.00
55916;BME280;41826;53.246;-6.670;2023-11-21T04:18:29;102758.47;;;5.22;100.00
55916;BME280;41826;53.246;-6.670;2023-11-21T04:20:57;102764.47;;;5.25;100.00
55916;BME280;41826;53.246;-6.670;2023-11-21T04:23:22;102773.06;;;5.27;100.00
55916;BME280;41826;53.246;-6.670;2023-11-21T04:25:47;102773.50;;;5.38;100.00
55916;BME280;41826;53.246;-6.670;2023-11-21T04:28:13;102780.91;;;5.49;100.00
55916;BME280;41826;53.246;-6.670;2023-11-21T04:30:39;102783.44;;;5.50;100.00
55916;BME280;41826;53.246;-6.670;2023-11-21T04:33:05;102801.72;;;5.49;100.00
55916;BME280;41826;53.246;-6.670;2023-11-21T04:35:31;102816.66;;;5.45;100.00
55916;BME280;41826;53.246;-6.670;2023-11-21T04:37:57;102820.66;;;5.30;100.00
55916;BME280;41826;53.246;-6.670;2023-11-21T04:40:22;102822.31;;;5.33;100.00
55916;BME280;41826;53.246;-6.670;2023-11-21T04:42:48;102822.88;;;5.41;100.00
55916;BME280;41826;53.246;-6.670;2023-11-21T04:45:13;102820.13;;;5.44;100.00
55916;BME280;41826;53.246;-6.670;2023-11-21T04:47:38;102825.59;;;5.38;100.00
55916;BME280;41826;53.246;-6.670;2023-11-21T04:50:10;102834.59;;;5.29;100.00
55916;BME280;41826;53.246;-6.670;2023-11-21T04:52:35;102841.81;;;5.21;100.00
55916;BME280;41826;53.246;-6.670;2023-11-21T04:55:01;102843.81;;;5.14;100.00
55916;BME280;41826;53.246;-6.670;2023-11-21T04:57:28;102848.09;;;5.15;100.00
55916;BME280;41826;53.246;-6.670;2023-11-21T04:59:56;102854.50;;;5.07;100.00
55916;BME280;41826;53.246;-6.670;2023-11-21T05:02:22;102855.91;;;4.92;100.00
55916;BME280;41826;53.246;-6.670;2023-11-21T05:04:47;102863.31;;;4.77;100.00
55916;BME280;41826;53.246;-6.670;2023-11-21T05:07:13;102861.63;;;4.76;100.00
55916;BME280;41826;53.246;-6.670;2023-11-21T05:09:43;102863.56;;;4.70;100.00
55916;BME280;41826;53.246;-6.670;2023-11-21T05:12:14;102854.50;;;4.56;100.00
55916;BME280;41826;53.246;-6.670;2023-11-21T05:14:39;102838.19;;;4.51;100.00
55916;BME280;41826;53.246;-6.670;2023-11-21T05:17:05;102839.84;;;4.54;100.00
55916;BME280;41826;53.246;-6.670;2023-11-21T05:19:30;102837.66;;;4.67;100.00
55916;BME280;41826;53.246;-6.670;2023-11-21T05:21:56;102833.97;;;4.47;100.00
55916;BME280;41826;53.246;-6.670;2023-11-21T05:24:21;102819.88;;;4.80;100.00
55916;BME280;41826;53.246;-6.670;2023-11-21T05:26:46;102817.53;;;4.97;100.00
55916;BME280;41826;53.246;-6.670;2023-11-21T05:29:12;102827.59;;;5.06;100.00
55916;BME280;41826;53.246;-6.670;2023-11-21T05:31:37;102832.81;;;5.06;100.00
55916;BME280;41826;53.246;-6.670;2023-11-21T05:34:03;102843.22;;;5.06;100.00
55916;BME280;41826;53.246;-6.670;2023-11-21T05:36:28;102857.97;;;5.07;100.00
55916;BME280;41826;53.246;-6.670;2023-11-21T05:38:53;102873.56;;;5.07;100.00
55916;BME280;41826;53.246;-6.670;2023-11-21T05:41:19;102872.88;;;5.02;100.00
55916;BME280;41826;53.246;-6.670;2023-11-21T05:43:44;102873.88;;;4.98;100.00
55916;BME280;41826;53.246;-6.670;2023-11-21T05:46:09;102884.25;;;4.99;100.00
55916;BME280;41826;53.246;-6.670;2023-11-21T05:48:34;102894.59;;;5.01;100.00
55916;BME280;41826;53.246;-6.670;2023-11-21T05:51:02;102893.81;;;4.99;100.00
55916;BME280;41826;53.246;-6.670;2023-11-21T05:53:28;102897.53;;;4.92;100.00
55916;BME280;41826;53.246;-6.670;2023-11-21T05:55:53;102905.22;;;4.95;100.00
55916;BME280;41826;53.246;-6.670;2023-11-21T05:58:19;102908.63;;;4.97;100.00
55916;BME280;41826;53.246;-6.670;2023-11-21T06:00:45;102908.75;;;4.94;100.00
55916;BME280;41826;53.246;-6.670;2023-11-21T06:03:10;102898.53;;;4.88;100.00
55916;BME280;41826;53.246;-6.670;2023-11-21T06:05:35;102893.44;;;4.85;100.00
55916;BME280;41826;53.246;-6.670;2023-11-21T06:08:00;102885.03;;;4.76;100.00
55916;BME280;41826;53.246;-6.670;2023-11-21T06:10:26;102881.53;;;4.77;100.00
55916;BME280;41826;53.246;-6.670;2023-11-21T06:12:52;102885.78;;;4.80;100.00
55916;BME280;41826;53.246;-6.670;2023-11-21T06:15:17;102880.44;;;4.85;100.00
55916;BME280;41826;53.246;-6.670;2023-11-21T06:17:47;102878.78;;;4.82;100.00
55916;BME280;41826;53.246;-6.670;2023-11-21T06:20:17;102885.59;;;4.86;100.00
55916;BME280;41826;53.246;-6.670;2023-11-21T06:22:43;102897.53;;;4.92;100.00
55916;BME280;41826;53.246;-6.670;2023-11-21T06:25:09;102890.72;;;4.88;100.00
55916;BME280;41826;53.246;-6.670;2023-11-21T06:27:37;102880.31;;;4.88;100.00
55916;BME280;41826;53.246;-6.670;2023-11-21T06:30:04;102882.06;;;4.87;100.00
55916;BME280;41826;53.246;-6.670;2023-11-21T06:32:30;102886.47;;;4.85;100.00
55916;BME280;41826;53.246;-6.670;2023-11-21T06:34:55;102882.19;;;4.84;100.00
55916;BME280;41826;53.246;-6.670;2023-11-21T06:37:29;102890.84;;;4.85;100.00
55916;BME280;41826;53.246;-6.670;2023-11-21T06:39:55;102891.47;;;4.66;100.00
55916;BME280;41826;53.246;-6.670;2023-11-21T06:42:21;102891.59;;;4.62;100.00
55916;BME280;41826;53.246;-6.670;2023-11-21T06:44:47;102884.09;;;4.52;100.00
55916;BME280;41826;53.246;-6.670;2023-11-21T06:47:13;102872.88;;;4.77;100.00
55916;BME280;41826;53.246;-6.670;2023-11-21T06:49:38;102872.72;;;4.82;100.00
55916;BME280;41826;53.246;-6.670;2023-11-21T06:52:04;102864.06;;;4.81;100.00
55916;BME280;41826;53.246;-6.670;2023-11-21T06:54:30;102866.84;;;4.76;100.00
55916;BME280;41826;53.246;-6.670;2023-11-21T06:56:56;102867.72;;;4.75;100.00
55916;BME280;41826;53.246;-6.670;2023-11-21T06:59:24;102877.28;;;4.75;100.00
55916;BME280;41826;53.246;-6.670;2023-11-21T07:01:50;102885.03;;;4.76;100.00
55916;BME280;41826;53.246;-6.670;2023-11-21T07:04:16;102890.31;;;4.73;100.00
55916;BME280;41826;53.246;-6.670;2023-11-21T07:06:41;102889.38;;;4.51;100.00
55916;BME280;41826;53.246;-6.670;2023-11-21T07:09:08;102877.81;;;4.33;100.00
55916;BME280;41826;53.246;-6.670;2023-11-21T07:11:34;102872.44;;;4.38;100.00
55916;BME280;41826;53.246;-6.670;2023-11-21T07:14:00;102870.75;;;4.37;100.00
55916;BME280;41826;53.246;-6.670;2023-11-21T07:16:33;102861.84;;;4.44;100.00
55916;BME280;41826;53.246;-6.670;2023-11-21T07:18:59;102865.69;;;4.59;100.00
55916;BME280;41826;53.246;-6.670;2023-11-21T07:21:25;102880.03;;;4.70;100.00
55916;BME280;41826;53.246;-6.670;2023-11-21T07:23:50;102885.13;;;4.73;100.00
55916;BME280;41826;53.246;-6.670;2023-11-21T07:26:15;102895.59;;;4.72;100.00
55916;BME280;41826;53.246;-6.670;2023-11-21T07:28:41;102910.31;;;4.73;100.00
55916;BME280;41826;53.246;-6.670;2023-11-21T07:31:06;102929.47;;;4.70;100.00
55916;BME280;41826;53.246;-6.670;2023-11-21T07:33:31;102933.84;;;4.68;100.00
55916;BME280;41826;53.246;-6.670;2023-11-21T07:35:57;102934.78;;;4.67;100.00
55916;BME280;41826;53.246;-6.670;2023-11-21T07:38:22;102940.25;;;4.58;100.00
55916;BME280;41826;53.246;-6.670;2023-11-21T07:40:48;102946.34;;;4.59;100.00
55916;BME280;41826;53.246;-6.670;2023-11-21T07:43:13;102959.88;;;4.42;100.00
55916;BME280;41826;53.246;-6.670;2023-11-21T07:45:38;102972.97;;;4.39;100.00
55916;BME280;41826;53.246;-6.670;2023-11-21T07:48:04;102976.88;;;4.52;100.00
55916;BME280;41826;53.246;-6.670;2023-11-21T07:50:30;102970.78;;;4.53;100.00
55916;BME280;41826;53.246;-6.670;2023-11-21T07:52:55;102977.50;;;4.60;100.00
55916;BME280;41826;53.246;-6.670;2023-11-21T07:55:21;102971.53;;;4.56;100.00
55916;BME280;41826;53.246;-6.670;2023-11-21T07:57:46;102973.31;;;4.56;100.00
55916;BME280;41826;53.246;-6.670;2023-11-21T08:00:12;102972.59;;;4.51;100.00
55916;BME280;41826;53.246;-6.670;2023-11-21T08:02:38;102986.47;;;4.50;100.00
55916;BME280;41826;53.246;-6.670;2023-11-21T08:05:04;102990.97;;;4.45;100.00
55916;BME280;41826;53.246;-6.670;2023-11-21T08:07:29;102996.94;;;4.48;100.00
55916;BME280;41826;53.246;-6.670;2023-11-21T08:09:55;103004.69;;;4.50;100.00
55916;BME280;41826;53.246;-6.670;2023-11-21T08:12:21;102997.91;;;4.46;100.00
55916;BME280;41826;53.246;-6.670;2023-11-21T08:14:47;103002.16;;;4.48;100.00
55916;BME280;41826;53.246;-6.670;2023-11-21T08:17:12;103003.88;;;4.48;100.00
55916;BME280;41826;53.246;-6.670;2023-11-21T08:19:37;103003.84;;;4.49;100.00
55916;BME280;41826;53.246;-6.670;2023-11-21T08:22:03;103004.75;;;4.48;100.00
55916;BME280;41826;53.246;-6.670;2023-11-21T08:24:29;103005.88;;;4.40;100.00
55916;BME280;41826;53.246;-6.670;2023-11-21T08:26:55;102995.38;;;4.43;100.00
55916;BME280;41826;53.246;-6.670;2023-11-21T08:29:22;103003.97;;;4.45;100.00
55916;BME280;41826;53.246;-6.670;2023-11-21T08:31:48;102991.59;;;4.53;100.00
55916;BME280;41826;53.246;-6.670;2023-11-21T08:34:13;102996.78;;;4.53;100.00
55916;BME280;41826;53.246;-6.670;2023-11-21T08:36:43;103003.50;;;4.60;100.00
55916;BME280;41826;53.246;-6.670;2023-11-21T08:39:08;103003.41;;;4.63;100.00
55916;BME280;41826;53.246;-6.670;2023-11-21T08:41:35;103014.63;;;4.65;100.00
55916;BME280;41826;53.246;-6.670;2023-11-21T08:44:03;103031.03;;;4.67;100.00
55916;BME280;41826;53.246;-6.670;2023-11-21T08:46:32;103039.75;;;4.66;100.00
55916;BME280;41826;53.246;-6.670;2023-11-21T08:48:58;103038.88;;;4.66;100.00
55916;BME280;41826;53.246;-6.670;2023-11-21T08:51:24;103042.28;;;4.68;100.00
55916;BME280;41826;53.246;-6.670;2023-11-21T08:53:50;103047.56;;;4.66;100.00
55916;BME280;41826;53.246;-6.670;2023-11-21T08:56:15;103041.44;;;4.67;100.00
55916;BME280;41826;53.246;-6.670;2023-11-21T08:58:40;103045.69;;;4.70;100.00
55916;BME280;41826;53.246;-6.670;2023-11-21T09:01:08;103046.50;;;4.72;100.00
55916;BME280;41826;53.246;-6.670;2023-11-21T09:03:33;103050.78;;;4.74;100.00
55916;BME280;41826;53.246;-6.670;2023-11-21T09:05:59;103033.25;;;4.80;100.00
55916;BME280;41826;53.246;-6.670;2023-11-21T09:08:25;103028.88;;;4.82;100.00
55916;BME280;41826;53.246;-6.670;2023-11-21T09:10:50;103018.34;;;4.85;100.00
55916;BME280;41826;53.246;-6.670;2023-11-21T09:13:15;103013.88;;;4.88;100.00
55916;BME280;41826;53.246;-6.670;2023-11-21T09:15:41;103000.84;;;4.90;100.00
55916;BME280;41826;53.246;-6.670;2023-11-21T09:18:08;103016.34;;;4.93;100.00
55916;BME280;41826;53.246;-6.670;2023-11-21T09:20:35;103010.09;;;4.98;100.00
55916;BME280;41826;53.246;-6.670;2023-11-21T09:23:00;103008.25;;;5.02;100.00
55916;BME280;41826;53.246;-6.670;2023-11-21T09:25:26;103005.66;;;5.02;100.00
55916;BME280;41826;53.246;-6.670;2023-11-21T09:27:51;102991.59;;;5.06;100.00
55916;BME280;41826;53.246;-6.670;2023-11-21T09:30:16;102991.56;;;5.08;100.00
55916;BME280;41826;53.246;-6.670;2023-11-21T09:32:42;102987.31;;;5.05;100.00
55916;BME280;41826;53.246;-6.670;2023-11-21T09:35:10;102984.50;;;5.11;100.00
55916;BME280;41826;53.246;-6.670;2023-11-21T09:37:36;102984.41;;;5.14;100.00
55916;BME280;41826;53.246;-6.670;2023-11-21T09:40:03;102991.19;;;5.18;100.00
55916;BME280;41826;53.246;-6.670;2023-11-21T09:42:36;102991.97;;;5.22;100.00
55916;BME280;41826;53.246;-6.670;2023-11-21T09:45:05;102993.66;;;5.23;100.00
55916;BME280;41826;53.246;-6.670;2023-11-21T09:47:35;102994.31;;;5.30;100.00
55916;BME280;41826;53.246;-6.670;2023-11-21T09:50:03;102981.06;;;5.36;100.00
55916;BME280;41826;53.246;-6.670;2023-11-21T09:52:29;102984.34;;;5.41;100.00
55916;BME280;41826;53.246;-6.670;2023-11-21T09:54:57;102971.44;;;5.38;100.00
55916;BME280;41826;53.246;-6.670;2023-11-21T09:57:23;102976.41;;;5.44;100.00
55916;BME280;41826;53.246;-6.670;2023-11-21T09:59:52;102973.75;;;5.47;100.00
55916;BME280;41826;53.246;-6.670;2023-11-21T10:02:27;102976.16;;;5.52;100.00
55916;BME280;41826;53.246;-6.670;2023-11-21T10:04:54;102967.44;;;5.53;100.00
55916;BME280;41826;53.246;-6.670;2023-11-21T10:07:20;102961.22;;;5.57;100.00
55916;BME280;41826;53.246;-6.670;2023-11-21T10:09:46;102951.53;;;5.60;100.00
55916;BME280;41826;53.246;-6.670;2023-11-21T10:12:11;102948.81;;;5.63;100.00
55916;BME280;41826;53.246;-6.670;2023-11-21T10:14:40;102944.41;;;5.65;100.00
55916;BME280;41826;53.246;-6.670;2023-11-21T10:17:06;102945.09;;;5.71;100.00
55916;BME280;41826;53.246;-6.670;2023-11-21T10:19:35;102951.91;;;5.75;100.00
55916;BME280;41826;53.246;-6.670;2023-11-21T10:22:01;102939.59;;;5.78;100.00
55916;BME280;41826;53.246;-6.670;2023-11-21T10:24:28;102937.53;;;5.86;100.00
55916;BME280;41826;53.246;-6.670;2023-11-21T10:26:53;102931.59;;;5.83;100.00
55916;BME280;41826;53.246;-6.670;2023-11-21T10:29:19;102930.47;;;5.90;100.00
55916;BME280;41826;53.246;-6.670;2023-11-21T10:31:48;102942.59;;;5.91;100.00
55916;BME280;41826;53.246;-6.670;2023-11-21T10:34:16;102944.25;;;5.94;100.00
55916;BME280;41826;53.246;-6.670;2023-11-21T10:36:42;102942.38;;;5.97;100.00
55916;BME280;41826;53.246;-6.670;2023-11-21T10:39:07;102938.47;;;6.09;100.00
55916;BME280;41826;53.246;-6.670;2023-11-21T10:41:33;102942.28;;;6.00;100.00
55916;BME280;41826;53.246;-6.670;2023-11-21T10:44:00;102942.09;;;6.05;100.00
55916;BME280;41826;53.246;-6.670;2023-11-21T10:46:25;102932.44;;;6.07;100.00
55916;BME280;41826;53.246;-6.670;2023-11-21T10:48:52;102927.97;;;6.11;100.00
55916;BME280;41826;53.246;-6.670;2023-11-21T10:51:20;102919.38;;;6.08;100.00
55916;BME280;41826;53.246;-6.670;2023-11-21T10:53:45;102911.56;;;6.31;100.00
55916;BME280;41826;53.246;-6.670;2023-11-21T10:56:12;102923.84;;;6.27;100.00
55916;BME280;41826;53.246;-6.670;2023-11-21T10:58:42;102928.72;;;6.36;100.00
55916;BME280;41826;53.246;-6.670;2023-11-21T11:01:08;102929.88;;;6.29;100.00
55916;BME280;41826;53.246;-6.670;2023-11-21T11:03:36;102933.69;;;6.42;100.00
55916;BME280;41826;53.246;-6.670;2023-11-21T11:06:03;102920.41;;;6.48;100.00
55916;BME280;41826;53.246;-6.670;2023-11-21T11:08:29;102928.03;;;6.53;100.00
55916;BME280;41826;53.246;-6.670;2023-11-21T11:10:55;102929.13;;;6.47;100.00
55916;BME280;41826;53.246;-6.670;2023-11-21T11:13:21;102933.19;;;6.55;100.00
55916;BME280;41826;53.246;-6.670;2023-11-21T11:15:47;102932.41;;;6.53;100.00
55916;BME280;41826;53.246;-6.670;2023-11-21T11:18:14;102935.66;;;6.58;100.00
55916;BME280;41826;53.246;-6.670;2023-11-21T11:20:40;102938.03;;;6.64;100.00
55916;BME280;41826;53.246;-6.670;2023-11-21T11:28:21;102922.00;;;6.73;100.00
55916;BME280;41826;53.246;-6.670;2023-11-21T11:30:55;102917.31;;;6.81;100.00
55916;BME280;41826;53.246;-6.670;2023-11-21T11:33:45;102893.03;;;7.00;100.00
55916;BME280;41826;53.246;-6.670;2023-11-21T11:36:17;102898.44;;;6.95;100.00
55916;BME280;41826;53.246;-6.670;2023-11-21T11:38:46;102889.56;;;6.99;100.00
55916;BME280;41826;53.246;-6.670;2023-11-21T11:41:11;102885.03;;;7.23;100.00
55916;BME280;41826;53.246;-6.670;2023-11-21T11:43:37;102894.19;;;7.13;100.00
55916;BME280;41826;53.246;-6.670;2023-11-21T11:46:09;102908.09;;;7.13;100.00
55916;BME280;41826;53.246;-6.670;2023-11-21T11:48:35;102907.25;;;7.13;100.00
55916;BME280;41826;53.246;-6.670;2023-11-21T11:51:09;102894.97;;;7.15;100.00
55916;BME280;41826;53.246;-6.670;2023-11-21T11:53:35;102889.56;;;7.20;100.00
55916;BME280;41826;53.246;-6.670;2023-11-21T11:58:47;102885.47;;;7.33;100.00
55916;BME280;41826;53.246;-6.670;2023-11-21T12:01:12;102889.56;;;7.38;100.00
55916;BME280;41826;53.246;-6.670;2023-11-21T12:03:38;102885.06;;;7.42;100.00
55916;BME280;41826;53.246;-6.670;2023-11-21T12:06:04;102896.22;;;7.46;100.00
55916;BME280;41826;53.246;-6.670;2023-11-21T12:08:31;102907.47;;;7.48;100.00
55916;BME280;41826;53.246;-6.670;2023-11-21T12:10:59;102902.09;;;7.51;100.00
55916;BME280;41826;53.246;-6.670;2023-11-21T12:13:26;102903.94;;;7.49;100.00
55916;BME280;41826;53.246;-6.670;2023-11-21T12:15:52;102901.94;;;7.54;100.00
55916;BME280;41826;53.246;-6.670;2023-11-21T12:18:19;102895.59;;;7.59;100.00
55916;BME280;41826;53.246;-6.670;2023-11-21T12:20:45;102890.94;;;7.66;100.00
55916;BME280;41826;53.246;-6.670;2023-11-21T12:23:15;102897.75;;;7.70;100.00
55916;BME280;41826;53.246;-6.670;2023-11-21T12:25:42;102893.28;;;7.72;100.00
55916;BME280;41826;53.246;-6.670;2023-11-21T12:28:08;102890.53;;;7.75;100.00
55916;BME280;41826;53.246;-6.670;2023-11-21T12:30:33;102879.22;;;7.75;100.00
55916;BME280;41826;53.246;-6.670;2023-11-21T12:33:03;102877.47;;;7.75;100.00
55916;BME280;41826;53.246;-6.670;2023-11-21T12:35:30;102874.53;;;7.81;100.00
55916;BME280;41826;53.246;-6.670;2023-11-21T12:37:56;102876.38;;;7.79;100.00
55916;BME280;41826;53.246;-6.670;2023-11-21T12:40:24;102872.72;;;7.84;100.00
55916;BME280;41826;53.246;-6.670;2023-11-21T12:42:57;102881.03;;;7.92;100.00
55916;BME280;41826;53.246;-6.670;2023-11-21T12:45:24;102887.03;;;7.94;100.00